createdAt,value
2018-11-07T00:00:58.012Z,12.85
2018-11-07T00:03:27.538Z,12.85
2018-11-07T00:05:56.972Z,12.83
2018-11-07T00:08:26.656Z,12.86
2018-11-07T00:10:57.153Z,12.92
2018-11-07T00:13:26.541Z,12.94
2018-11-07T00:15:55.879Z,12.93
2018-11-07T00:18:25.504Z,12.95
2018-11-07T00:20:55.062Z,12.95
2018-11-07T00:23:25.541Z,12.98
2018-11-07T00:25:55.170Z,12.98
2018-11-07T00:28:28.396Z,12.98
2018-11-07T00:30:57.826Z,12.96
2018-11-07T00:33:27.447Z,12.96
2018-11-07T00:35:57.157Z,12.92
2018-11-07T00:38:29.388Z,12.93
2018-11-07T00:40:59.404Z,12.95
2018-11-07T00:43:28.832Z,12.95
2018-11-07T00:45:59.376Z,13.03
2018-11-07T00:48:28.978Z,13.09
2018-11-07T00:50:58.719Z,13.11
2018-11-07T00:53:29.128Z,13.14
2018-11-07T00:55:58.682Z,13.22
2018-11-07T00:58:28.564Z,13.21
2018-11-07T01:00:58.662Z,13.23
2018-11-07T01:03:28.367Z,13.24
2018-11-07T01:05:57.906Z,13.26
2018-11-07T01:08:27.355Z,13.24
2018-11-07T01:10:56.850Z,13.27
2018-11-07T01:13:26.768Z,13.30
2018-11-07T01:15:56.818Z,13.31
2018-11-07T01:18:27.033Z,13.29
2018-11-07T01:20:56.753Z,13.37
2018-11-07T01:23:26.351Z,13.37
2018-11-07T01:25:55.834Z,13.35
2018-11-07T01:28:25.537Z,13.35
2018-11-07T01:30:55.316Z,13.34
2018-11-07T01:33:26.936Z,13.36
2018-11-07T01:35:56.649Z,13.35
2018-11-07T01:38:26.171Z,13.33
2018-11-07T01:40:55.757Z,13.30
2018-11-07T01:43:25.221Z,13.28
2018-11-07T01:45:55.234Z,13.22
2018-11-07T01:48:24.742Z,13.15
2018-11-07T01:50:55.356Z,13.08
2018-11-07T01:53:25.680Z,13.06
2018-11-07T01:55:55.406Z,13.06
2018-11-07T01:58:26.272Z,13.00
2018-11-07T02:00:57.908Z,12.99
2018-11-07T02:03:28.379Z,12.92
2018-11-07T02:05:57.779Z,12.93
2018-11-07T02:08:30.469Z,12.86
2018-11-07T02:11:00.657Z,12.83
2018-11-07T02:13:30.360Z,12.77
2018-11-07T02:15:59.865Z,12.81
2018-11-07T02:18:29.370Z,12.78
2018-11-07T02:20:59.653Z,12.75
2018-11-07T02:23:29.049Z,12.68
2018-11-07T02:25:58.566Z,12.65
2018-11-07T02:28:28.038Z,12.64
2018-11-07T02:30:58.704Z,12.62
2018-11-07T02:33:35.036Z,12.57
2018-11-07T02:36:05.232Z,12.51
2018-11-07T02:38:34.730Z,12.45
2018-11-07T02:41:04.681Z,12.36
2018-11-07T02:43:34.186Z,12.34
2018-11-07T02:46:04.060Z,12.31
2018-11-07T02:48:34.388Z,12.27
2018-11-07T02:51:04.350Z,12.20
2018-11-07T02:53:34.135Z,12.23
2018-11-07T02:56:03.659Z,12.14
2018-11-07T02:58:33.160Z,12.07
2018-11-07T03:01:02.746Z,12.07
2018-11-07T03:03:32.237Z,12.09
2018-11-07T03:06:01.742Z,12.07
2018-11-07T03:08:32.681Z,12.06
2018-11-07T03:11:03.655Z,12.08
2018-11-07T03:13:33.496Z,12.08
2018-11-07T03:16:03.098Z,12.10
2018-11-07T03:18:32.575Z,12.09
2018-11-07T03:21:02.020Z,12.05
2018-11-07T03:23:31.320Z,12.06
2018-11-07T03:26:00.717Z,12.01
2018-11-07T03:28:30.166Z,11.97
2018-11-07T03:30:59.811Z,11.96
2018-11-07T03:33:29.351Z,11.94
2018-11-07T03:35:59.040Z,11.93
2018-11-07T03:38:29.080Z,11.97
2018-11-07T03:40:59.087Z,11.97
2018-11-07T03:43:29.692Z,11.99
2018-11-07T03:46:00.520Z,12.01
2018-11-07T03:48:32.119Z,12.02
2018-11-07T03:51:02.541Z,12.10
2018-11-07T03:53:32.177Z,12.17
2018-11-07T03:56:03.818Z,12.24
2018-11-07T03:58:33.697Z,12.24
2018-11-07T04:01:03.575Z,12.20
2018-11-07T04:03:33.225Z,12.16
2018-11-07T04:06:03.851Z,12.15
2018-11-07T04:08:33.563Z,12.12
2018-11-07T04:11:03.608Z,12.07
2018-11-07T04:13:33.608Z,12.07
2018-11-07T04:16:03.928Z,12.06
2018-11-07T04:18:33.685Z,12.04
2018-11-07T04:21:05.541Z,12.00
2018-11-07T04:23:35.104Z,11.98
2018-11-07T04:26:05.354Z,11.97
2018-11-07T04:28:34.980Z,11.94
2018-11-07T04:31:07.057Z,11.96
2018-11-07T04:33:36.459Z,12.01
2018-11-07T04:36:06.975Z,11.96
2018-11-07T04:38:36.538Z,11.91
2018-11-07T04:41:07.384Z,11.88
2018-11-07T04:43:37.191Z,11.86
2018-11-07T04:46:08.417Z,11.81
2018-11-07T04:48:38.732Z,11.79
2018-11-07T04:51:08.989Z,11.74
2018-11-07T04:53:39.206Z,11.69
2018-11-07T04:56:08.810Z,11.63
2018-11-07T04:58:38.673Z,11.59
2018-11-07T05:01:08.534Z,11.55
2018-11-07T05:03:40.292Z,11.51
2018-11-07T05:06:10.618Z,11.49
2018-11-07T05:08:40.487Z,11.45
2018-11-07T05:11:11.242Z,11.45
2018-11-07T05:13:41.565Z,11.45
2018-11-07T05:16:11.582Z,11.41
2018-11-07T05:18:40.959Z,11.36
2018-11-07T05:21:10.465Z,11.30
2018-11-07T05:23:40.332Z,11.28
2018-11-07T05:26:09.862Z,11.29
2018-11-07T05:28:39.320Z,11.25
2018-11-07T05:31:08.812Z,11.19
2018-11-07T05:33:38.325Z,11.20
2018-11-07T05:36:09.147Z,11.27
2018-11-07T05:38:39.051Z,11.24
2018-11-07T05:41:09.662Z,11.17
2018-11-07T05:43:39.258Z,11.12
2018-11-07T05:46:15.684Z,11.10
2018-11-07T05:48:45.287Z,11.10
2018-11-07T05:51:15.086Z,11.07
2018-11-07T05:53:45.543Z,11.07
2018-11-07T05:56:15.372Z,11.07
2018-11-07T05:58:45.374Z,11.03
2018-11-07T06:01:14.770Z,11.06
2018-11-07T06:03:45.094Z,11.04
2018-11-07T06:06:14.460Z,11.03
2018-11-07T06:08:44.007Z,11.00
2018-11-07T06:11:14.558Z,11.05
2018-11-07T06:13:44.408Z,11.09
2018-11-07T06:16:15.419Z,11.04
2018-11-07T06:18:45.285Z,11.04
2018-11-07T06:21:17.331Z,11.06
2018-11-07T06:23:47.086Z,11.10
2018-11-07T06:26:17.229Z,11.10
2018-11-07T06:28:47.937Z,11.09
2018-11-07T06:31:18.768Z,11.05
2018-11-07T06:33:48.491Z,11.06
2018-11-07T06:36:18.492Z,11.10
2018-11-07T06:38:48.237Z,11.11
2018-11-07T06:41:18.281Z,11.08
2018-11-07T06:43:48.107Z,11.06
2018-11-07T06:46:17.731Z,11.09
2018-11-07T06:48:47.723Z,11.15
2018-11-07T06:51:18.275Z,11.15
2018-11-07T06:53:47.800Z,11.13
2018-11-07T06:56:18.419Z,11.15
2018-11-07T06:58:48.400Z,11.15
2018-11-07T07:01:20.569Z,11.16
2018-11-07T07:03:51.960Z,11.11
2018-11-07T07:06:22.165Z,11.14
2018-11-07T07:08:51.927Z,11.12
2018-11-07T07:11:21.841Z,11.11
2018-11-07T07:14:04.419Z,11.17
2018-11-07T07:16:34.021Z,11.25
2018-11-07T07:19:03.442Z,11.23
2018-11-07T07:21:33.224Z,11.24
2018-11-07T07:24:03.434Z,11.27
2018-11-07T07:26:33.458Z,11.31
2018-11-07T07:29:03.578Z,11.28
2018-11-07T07:31:34.539Z,11.26
2018-11-07T07:34:07.715Z,11.23
2018-11-07T07:36:38.128Z,11.24
2018-11-07T07:39:09.362Z,11.24
2018-11-07T07:41:39.946Z,11.24
2018-11-07T07:44:09.637Z,11.29
2018-11-07T07:46:39.226Z,11.33
2018-11-07T07:49:08.810Z,11.38
2018-11-07T07:51:38.559Z,11.43
2018-11-07T07:54:08.251Z,11.43
2018-11-07T07:56:38.008Z,11.50
2018-11-07T07:59:08.924Z,11.57
2018-11-07T08:01:40.044Z,11.63
2018-11-07T08:04:09.601Z,11.68
2018-11-07T08:06:39.360Z,11.80
2018-11-07T08:09:13.134Z,11.88
2018-11-07T08:11:42.673Z,11.86
2018-11-07T08:14:12.018Z,11.89
2018-11-07T08:16:41.432Z,11.98
2018-11-07T08:19:11.100Z,12.02
2018-11-07T08:21:40.723Z,12.04
2018-11-07T08:24:10.096Z,12.10
2018-11-07T08:26:39.545Z,12.08
2018-11-07T08:29:09.332Z,12.12
2018-11-07T08:31:38.959Z,12.21
2018-11-07T08:34:08.480Z,12.28
2018-11-07T08:36:37.996Z,12.33
2018-11-07T08:39:11.308Z,12.35
2018-11-07T08:41:40.862Z,12.45
2018-11-07T08:44:10.380Z,12.53
2018-11-07T08:46:39.735Z,12.55
2018-11-07T08:49:09.329Z,12.66
2018-11-07T08:51:39.040Z,12.70
2018-11-07T08:54:08.740Z,12.71
2018-11-07T08:56:38.416Z,12.77
2018-11-07T08:59:08.415Z,12.92
2018-11-07T09:04:08.084Z,12.97
2018-11-07T09:06:37.705Z,13.05
2018-11-07T09:09:10.156Z,13.09
2018-11-07T09:11:40.200Z,13.20
2018-11-07T09:14:10.474Z,13.29
2018-11-07T09:16:40.242Z,13.35
2018-11-07T09:19:09.963Z,13.44
2018-11-07T09:21:39.851Z,13.49
2018-11-07T09:24:09.519Z,13.62
2018-11-07T09:26:39.011Z,13.71
2018-11-07T09:29:08.777Z,13.65
2018-11-07T09:31:38.208Z,13.74
2018-11-07T09:34:08.003Z,13.77
2018-11-07T09:36:37.609Z,13.86
2018-11-07T09:39:09.155Z,13.94
2018-11-07T09:41:39.294Z,13.98
2018-11-07T09:44:08.908Z,14.07
2018-11-07T09:46:38.691Z,14.14
2018-11-07T09:49:09.230Z,14.28
2018-11-07T09:51:39.057Z,14.37
2018-11-07T09:54:08.762Z,14.44
2018-11-07T09:56:38.826Z,14.60
2018-11-07T09:59:08.799Z,14.60
2018-11-07T10:01:38.507Z,14.65
2018-11-07T10:04:08.695Z,14.72
2018-11-07T10:06:38.387Z,14.74
2018-11-07T10:09:10.859Z,14.70
2018-11-07T10:11:40.494Z,14.66
2018-11-07T10:14:10.101Z,14.73
2018-11-07T10:16:39.830Z,14.86
2018-11-07T10:19:09.537Z,14.91
2018-11-07T10:21:41.815Z,14.98
2018-11-07T10:24:11.503Z,15.10
2018-11-07T10:26:42.990Z,15.15
2018-11-07T10:29:13.020Z,15.19
2018-11-07T10:31:42.488Z,15.25
2018-11-07T10:34:12.592Z,15.30
2018-11-07T10:36:42.001Z,15.35
2018-11-07T10:39:11.932Z,15.53
2018-11-07T10:41:41.956Z,15.51
2018-11-07T10:44:11.393Z,15.58
2018-11-07T10:46:41.550Z,15.63
2018-11-07T10:49:11.059Z,15.69
2018-11-07T10:51:41.390Z,15.67
2018-11-07T10:54:11.640Z,15.73
2018-11-07T10:56:41.129Z,15.66
2018-11-07T10:59:11.341Z,15.64
2018-11-07T11:01:46.217Z,15.75
2018-11-07T11:04:15.669Z,15.74
2018-11-07T11:06:45.075Z,15.75
2018-11-07T11:09:14.517Z,15.83
2018-11-07T11:11:44.020Z,15.87
2018-11-07T11:14:13.703Z,15.89
2018-11-07T11:16:43.250Z,16.00
2018-11-07T11:19:12.751Z,16.04
2018-11-07T11:21:42.493Z,16.18
2018-11-07T11:24:12.780Z,16.22
2018-11-07T11:26:42.207Z,16.21
2018-11-07T11:29:11.790Z,16.26
2018-11-07T11:31:41.421Z,16.39
2018-11-07T11:34:11.136Z,16.47
2018-11-07T11:36:41.044Z,16.53
2018-11-07T11:39:12.215Z,16.58
2018-11-07T11:41:42.383Z,16.68
2018-11-07T11:44:11.831Z,16.71
2018-11-07T11:46:41.294Z,16.84
2018-11-07T11:49:10.929Z,16.85
2018-11-07T11:51:40.502Z,16.93
2018-11-07T11:54:09.935Z,17.32
2018-11-07T11:56:39.419Z,17.91
2018-11-07T11:59:09.272Z,18.72
2018-11-07T12:01:38.785Z,18.90
2018-11-07T12:04:08.577Z,19.43
2018-11-07T12:06:38.623Z,19.49
2018-11-07T12:09:10.259Z,19.21
2018-11-07T12:11:42.929Z,18.82
2018-11-07T12:14:12.342Z,18.41
2018-11-07T12:16:42.897Z,18.06
2018-11-07T12:19:13.096Z,17.93
2018-11-07T12:21:43.915Z,17.92
2018-11-07T12:24:13.550Z,17.85
2018-11-07T12:26:43.286Z,17.83
2018-11-07T12:29:12.669Z,17.92
2018-11-07T12:31:42.883Z,18.02
2018-11-07T12:34:12.838Z,18.03
2018-11-07T12:36:42.198Z,18.30
2018-11-07T12:39:11.583Z,18.69
2018-11-07T12:41:41.074Z,18.94
2018-11-07T12:44:10.572Z,19.06
2018-11-07T12:46:40.024Z,18.95
2018-11-07T12:49:10.401Z,18.65
2018-11-07T12:51:39.960Z,18.65
2018-11-07T12:54:09.452Z,18.58
2018-11-07T12:56:38.986Z,18.50
2018-11-07T12:59:11.031Z,18.75
2018-11-07T13:01:40.614Z,18.84
2018-11-07T13:04:10.179Z,18.73
2018-11-07T13:06:39.648Z,18.60
2018-11-07T13:09:11.563Z,18.41
2018-11-07T13:11:41.890Z,18.30
2018-11-07T13:14:11.627Z,18.18
2018-11-07T13:16:42.193Z,18.13
2018-11-07T13:19:12.202Z,17.92
2018-11-07T13:21:41.874Z,17.83
2018-11-07T13:24:11.489Z,17.77
2018-11-07T13:26:41.223Z,17.72
2018-11-07T13:29:10.580Z,17.67
2018-11-07T13:31:40.106Z,17.63
2018-11-07T13:34:09.901Z,17.58
2018-11-07T13:36:39.478Z,17.49
2018-11-07T13:39:13.661Z,17.41
2018-11-07T13:41:43.039Z,17.30
2018-11-07T13:44:12.603Z,17.28
2018-11-07T13:46:43.174Z,17.23
2018-11-07T13:49:12.678Z,17.19
2018-11-07T13:51:42.753Z,17.18
2018-11-07T13:54:13.124Z,17.15
2018-11-07T13:56:42.816Z,17.17
2018-11-07T13:59:12.373Z,17.18
2018-11-07T14:01:41.892Z,17.17
2018-11-07T14:04:11.725Z,17.13
2018-11-07T14:06:41.164Z,17.10
2018-11-07T14:09:12.467Z,17.09
2018-11-07T14:11:43.109Z,17.12
2018-11-07T14:14:12.575Z,17.09
2018-11-07T14:16:42.347Z,17.07
2018-11-07T14:19:12.067Z,17.02
2018-11-07T14:21:42.044Z,16.97
2018-11-07T14:24:12.617Z,16.92
2018-11-07T14:26:42.444Z,16.90
2018-11-07T14:29:13.362Z,16.86
2018-11-07T14:31:42.913Z,16.82
2018-11-07T14:34:13.015Z,16.80
2018-11-07T14:36:43.623Z,16.85
2018-11-07T14:39:13.519Z,16.84
2018-11-07T14:41:43.963Z,16.84
2018-11-07T14:44:13.574Z,16.86
2018-11-07T14:46:43.451Z,16.88
2018-11-07T14:49:13.496Z,16.84
2018-11-07T14:51:44.036Z,16.82
2018-11-07T14:54:13.705Z,16.85
2018-11-07T14:56:43.954Z,16.81
2018-11-07T14:59:14.569Z,16.81
2018-11-07T15:01:44.123Z,16.74
2018-11-07T15:04:16.583Z,16.74
2018-11-07T15:06:47.671Z,16.75
2018-11-07T15:09:17.361Z,16.72
2018-11-07T15:11:47.089Z,16.68
2018-11-07T15:14:16.716Z,16.64
2018-11-07T15:16:46.806Z,16.59
2018-11-07T15:19:16.586Z,16.53
2018-11-07T15:21:47.528Z,16.44
2018-11-07T15:24:17.281Z,16.34
2018-11-07T15:26:47.467Z,16.20
2018-11-07T15:29:17.710Z,16.08
2018-11-07T15:31:47.495Z,15.88
2018-11-07T15:34:17.537Z,15.67
2018-11-07T15:36:47.344Z,15.52
2018-11-07T15:39:18.162Z,15.38
2018-11-07T15:41:48.274Z,15.19
2018-11-07T15:44:17.918Z,14.97
2018-11-07T15:46:47.927Z,14.77
2018-11-07T15:49:17.693Z,14.61
2018-11-07T15:51:47.639Z,14.51
2018-11-07T15:54:17.769Z,14.44
2018-11-07T15:56:50.133Z,14.39
2018-11-07T15:59:19.891Z,14.33
2018-11-07T16:01:49.621Z,14.31
2018-11-07T16:04:19.283Z,14.28
2018-11-07T16:06:49.052Z,14.27
2018-11-07T16:09:19.272Z,14.26
2018-11-07T16:11:48.930Z,14.22
2018-11-07T16:14:18.761Z,14.23
2018-11-07T16:16:48.243Z,14.23
2018-11-07T16:19:17.869Z,14.25
2018-11-07T16:21:48.056Z,14.35
2018-11-07T16:24:18.665Z,14.40
2018-11-07T16:26:48.391Z,14.42
2018-11-07T16:29:19.505Z,14.46
2018-11-07T16:31:49.218Z,14.48
2018-11-07T16:34:19.278Z,14.53
2018-11-07T16:36:49.190Z,14.56
2018-11-07T16:39:19.915Z,14.59
2018-11-07T16:41:49.917Z,14.58
2018-11-07T16:44:19.734Z,14.63
2018-11-07T16:46:50.248Z,14.63
2018-11-07T16:49:20.353Z,14.64
2018-11-07T16:51:50.851Z,14.68
2018-11-07T16:54:22.280Z,14.65
2018-11-07T16:56:51.741Z,14.66
2018-11-07T16:59:21.614Z,14.64
2018-11-07T17:01:51.934Z,14.65
2018-11-07T17:04:21.624Z,14.69
2018-11-07T17:06:51.832Z,14.67
2018-11-07T17:09:23.426Z,14.66
2018-11-07T17:11:53.477Z,14.64
2018-11-07T17:14:23.162Z,14.64
2018-11-07T17:16:52.876Z,14.64
2018-11-07T17:19:23.463Z,14.61
2018-11-07T17:21:54.024Z,14.59
2018-11-07T17:24:24.024Z,14.59
2018-11-07T17:26:54.222Z,14.59
2018-11-07T17:29:24.268Z,14.57
2018-11-07T17:31:58.783Z,14.57
2018-11-07T17:34:28.552Z,14.59
2018-11-07T17:36:58.173Z,14.65
2018-11-07T17:39:27.658Z,14.69
2018-11-07T17:41:57.215Z,14.69
2018-11-07T17:44:26.665Z,14.69
2018-11-07T17:46:56.539Z,14.72
2018-11-07T17:49:25.997Z,14.73
2018-11-07T17:51:55.674Z,14.81
2018-11-07T17:54:25.329Z,14.87
2018-11-07T17:56:55.811Z,14.86
2018-11-07T17:59:25.584Z,14.84
2018-11-07T18:01:55.389Z,14.84
2018-11-07T18:04:24.975Z,14.81
2018-11-07T18:06:54.729Z,14.83
2018-11-07T18:09:24.257Z,14.88
2018-11-07T18:11:55.123Z,14.83
2018-11-07T18:14:24.628Z,14.84
2018-11-07T18:16:54.306Z,14.76
2018-11-07T18:19:24.086Z,14.78
2018-11-07T18:21:53.621Z,14.84
2018-11-07T18:24:23.298Z,14.80
2018-11-07T18:26:52.918Z,14.79
2018-11-07T18:29:22.499Z,14.80
2018-11-07T18:31:52.061Z,14.75
2018-11-07T18:34:21.585Z,14.74
2018-11-07T18:36:51.364Z,14.70
2018-11-07T18:39:20.840Z,14.70
2018-11-07T18:41:50.373Z,14.67
2018-11-07T18:44:20.083Z,14.66
2018-11-07T18:46:49.653Z,14.65
2018-11-07T18:49:19.394Z,14.62
2018-11-07T18:51:48.902Z,14.60
2018-11-07T18:54:18.586Z,14.58
2018-11-07T18:56:48.311Z,14.61
2018-11-07T18:59:18.305Z,14.60
2018-11-07T19:01:48.496Z,14.60
2018-11-07T19:04:18.169Z,14.55
2018-11-07T19:06:48.016Z,14.52
2018-11-07T19:09:18.710Z,14.51
2018-11-07T19:11:48.367Z,14.52
2018-11-07T19:14:18.176Z,14.54
2018-11-07T19:16:47.660Z,14.54
2018-11-07T19:19:17.488Z,14.52
2018-11-07T19:21:47.141Z,14.52
2018-11-07T19:24:17.691Z,14.52
2018-11-07T19:26:49.917Z,14.53
2018-11-07T19:29:20.574Z,14.54
2018-11-07T19:31:50.339Z,14.59
2018-11-07T19:34:22.207Z,14.52
2018-11-07T19:36:53.043Z,14.49
2018-11-07T19:39:24.421Z,14.46
2018-11-07T19:41:54.775Z,14.49
2018-11-07T19:44:24.267Z,14.48
2018-11-07T19:46:53.751Z,14.45
2018-11-07T19:49:23.145Z,14.48
2018-11-07T19:51:52.507Z,14.42
2018-11-07T19:54:22.097Z,14.38
2018-11-07T19:56:51.531Z,14.37
2018-11-07T19:59:21.044Z,14.38
2018-11-07T20:01:50.449Z,14.33
2018-11-07T20:04:20.349Z,14.31
2018-11-07T20:06:51.217Z,14.30
2018-11-07T20:09:21.009Z,14.29
2018-11-07T20:11:50.599Z,14.27
2018-11-07T20:14:21.311Z,14.24
2018-11-07T20:16:50.714Z,14.25
2018-11-07T20:19:20.903Z,14.23
2018-11-07T20:21:51.294Z,14.21
2018-11-07T20:24:21.428Z,14.20
2018-11-07T20:26:51.103Z,14.20
2018-11-07T20:29:21.988Z,14.21
2018-11-07T20:31:51.766Z,14.19
2018-11-07T20:34:22.465Z,14.17
2018-11-07T20:36:51.974Z,14.15
2018-11-07T20:39:22.791Z,14.13
2018-11-07T20:41:52.429Z,14.16
2018-11-07T20:44:22.693Z,14.12
2018-11-07T20:46:52.400Z,14.13
2018-11-07T20:49:22.372Z,14.14
2018-11-07T20:51:51.942Z,14.13
2018-11-07T20:54:21.859Z,14.16
2018-11-07T20:56:53.470Z,14.11
2018-11-07T20:59:24.823Z,14.14
2018-11-07T21:01:56.369Z,14.12
2018-11-07T21:04:29.341Z,14.15
2018-11-07T21:07:01.388Z,14.11
2018-11-07T21:09:32.358Z,14.12
2018-11-07T21:12:03.041Z,14.15
2018-11-07T21:14:34.665Z,14.20
2018-11-07T21:17:07.679Z,14.19
2018-11-07T21:19:38.922Z,14.19
2018-11-07T21:22:12.431Z,14.18
2018-11-07T21:24:42.223Z,14.20
2018-11-07T21:27:11.774Z,14.22
2018-11-07T21:29:41.483Z,14.21
2018-11-07T21:32:11.183Z,14.23
2018-11-07T21:34:40.892Z,14.19
2018-11-07T21:37:10.437Z,14.17
2018-11-07T21:39:39.952Z,14.14
2018-11-07T21:42:09.605Z,14.11
2018-11-07T21:44:39.164Z,14.07
2018-11-07T21:47:09.020Z,14.09
2018-11-07T21:49:38.760Z,14.09
2018-11-07T21:52:09.086Z,14.06
2018-11-07T21:54:38.776Z,14.04
2018-11-07T21:57:08.586Z,14.00
2018-11-07T21:59:38.307Z,13.97
2018-11-07T22:02:08.619Z,13.98
2018-11-07T22:04:38.460Z,13.95
2018-11-07T22:07:08.727Z,13.92
2018-11-07T22:09:39.301Z,13.91
2018-11-07T22:12:08.931Z,13.93
2018-11-07T22:14:38.524Z,13.90
2018-11-07T22:17:08.928Z,13.88
2018-11-07T22:19:39.738Z,13.89
2018-11-07T22:22:10.365Z,13.85
2018-11-07T22:24:41.549Z,13.81
2018-11-07T22:27:13.234Z,13.87
2018-11-07T22:29:43.042Z,13.85
2018-11-07T22:32:12.654Z,13.82
2018-11-07T22:34:42.576Z,13.75
2018-11-07T22:37:12.487Z,13.75
2018-11-07T22:39:42.363Z,13.71
2018-11-07T22:42:12.253Z,13.67
2018-11-07T22:44:41.806Z,13.67
2018-11-07T22:47:11.630Z,13.68
2018-11-07T22:49:41.471Z,13.73
2018-11-07T22:52:11.081Z,13.69
2018-11-07T22:54:40.509Z,13.66
2018-11-07T22:57:10.198Z,13.66
2018-11-07T22:59:40.598Z,13.60
2018-11-07T23:02:10.176Z,13.61
2018-11-07T23:04:39.646Z,13.58
2018-11-07T23:07:09.200Z,13.55
2018-11-07T23:09:38.925Z,13.51
2018-11-07T23:12:09.148Z,13.52
2018-11-07T23:14:39.112Z,13.49
2018-11-07T23:17:08.687Z,13.45
2018-11-07T23:19:38.603Z,13.45
2018-11-07T23:22:08.350Z,13.42
2018-11-07T23:24:39.022Z,13.41
2018-11-07T23:27:09.145Z,13.36
2018-11-07T23:29:38.791Z,13.34
2018-11-07T23:32:09.763Z,13.33
2018-11-07T23:34:40.221Z,13.35
2018-11-07T23:37:10.133Z,13.34
2018-11-07T23:39:39.950Z,13.29
2018-11-07T23:42:12.488Z,13.26
2018-11-07T23:44:42.030Z,13.25
2018-11-07T23:47:13.739Z,13.27
2018-11-07T23:49:43.294Z,13.30
2018-11-07T23:52:17.104Z,13.33
2018-11-07T23:54:46.621Z,13.37
2018-11-07T23:57:16.160Z,13.36
2018-11-07T23:59:47.217Z,13.41
